Saint Joseph, Minnesota
Current Conditions -  °F | °C
As of 5:53 PM on Thursday 27 Nov 2014 (Local Time) from KSTC Reporting Station
Clear Clear  
Wind Chill: -3°   Ceiling: Unl
Heat Index:   Visibility: 10mi
Dew Point: -4°   Wind: 6mph
Humidity: 61%   Direction: 150°SSE
Pressure: 30.34"   Gusts: NA
Location:  45.56°N, 94.32°W
Report Text: KSTC 272353Z 15005KT 10SM CLR M14/M20 A3034 RMK AO2 SLP313 T11391200 11133 21156 56020
Loading
Personal Weather Stations






























Interactive Weather Map New forecast layout! Learn more

10-Day Weather Forecast

Advertisements
Track Severe Weather on mobile